createdAt,value
2023-05-15T00:01:22.547Z,7.53
2023-05-15T00:03:52.287Z,6.05
2023-05-15T00:06:20.260Z,6.65
2023-05-15T00:08:47.634Z,5.50
2023-05-15T00:11:15.372Z,5.35
2023-05-15T00:13:42.687Z,4.50
2023-05-15T00:16:10.345Z,4.97
2023-05-15T00:18:37.781Z,7.18
2023-05-15T00:21:05.496Z,4.88
2023-05-15T00:23:32.737Z,3.95
2023-05-15T00:26:00.388Z,5.70
2023-05-15T00:28:27.742Z,4.00
2023-05-15T00:30:55.511Z,3.90
2023-05-15T00:33:22.933Z,4.90
2023-05-15T00:35:51.310Z,4.85
2023-05-15T00:38:18.604Z,4.13
2023-05-15T00:40:46.853Z,4.70
2023-05-15T00:43:16.201Z,3.17
2023-05-15T00:45:45.547Z,3.35
2023-05-15T00:48:14.017Z,3.67
2023-05-15T00:50:42.606Z,4.28
2023-05-15T00:53:11.239Z,4.05
2023-05-15T00:55:40.739Z,5.25
2023-05-15T00:58:11.009Z,7.03
2023-05-15T01:00:39.363Z,4.65
2023-05-15T01:03:07.063Z,4.10
2023-05-15T01:05:34.925Z,4.88
2023-05-15T01:08:39.975Z,5.30
2023-05-15T01:11:09.580Z,5.18
2023-05-15T01:13:36.948Z,4.60
2023-05-15T01:16:06.451Z,3.80
2023-05-15T01:18:33.956Z,6.57
2023-05-15T01:21:34.726Z,4.45
2023-05-15T01:24:23.428Z,5.07
2023-05-15T01:27:15.453Z,3.70
2023-05-15T01:29:59.891Z,3.75
2023-05-15T01:32:54.319Z,4.63
2023-05-15T01:35:41.512Z,5.75
2023-05-15T01:38:39.331Z,3.78
2023-05-15T01:41:35.171Z,3.88
2023-05-15T01:44:15.113Z,4.15
2023-05-15T01:46:51.293Z,4.30
2023-05-15T01:49:24.877Z,4.20
2023-05-15T01:52:14.824Z,4.70
2023-05-15T01:54:43.803Z,8.75
2023-05-15T01:57:13.755Z,4.30
2023-05-15T01:59:43.209Z,4.95
2023-05-15T02:02:12.152Z,5.35
2023-05-15T02:04:42.758Z,6.85
2023-05-15T02:07:11.151Z,5.45
2023-05-15T02:09:41.237Z,5.47
2023-05-15T02:12:10.755Z,4.82
2023-05-15T02:14:41.387Z,5.65
2023-05-15T02:17:09.244Z,6.60
2023-05-15T02:19:36.919Z,4.68
2023-05-15T02:22:04.408Z,6.40
2023-05-15T02:24:32.060Z,5.47
2023-05-15T02:27:12.199Z,7.93
2023-05-15T02:30:29.595Z,5.53
2023-05-15T02:33:36.072Z,6.68
2023-05-15T02:36:09.654Z,6.45
2023-05-15T02:38:49.107Z,5.70
2023-05-15T02:41:19.486Z,5.78
2023-05-15T02:43:50.936Z,6.47
2023-05-15T02:46:21.908Z,6.20
2023-05-15T02:48:50.766Z,6.03
2023-05-15T02:51:18.954Z,5.45
2023-05-15T02:53:46.431Z,5.88
2023-05-15T02:56:14.125Z,5.35
2023-05-15T02:58:42.507Z,8.80
2023-05-15T03:01:10.329Z,6.78
2023-05-15T03:03:37.680Z,6.13
2023-05-15T03:06:06.910Z,5.68
2023-05-15T03:08:34.254Z,5.63
2023-05-15T03:11:01.870Z,6.93
2023-05-15T03:13:29.227Z,5.05
2023-05-15T03:15:56.994Z,7.70
2023-05-15T03:18:24.662Z,6.00
2023-05-15T03:20:53.716Z,7.55
2023-05-15T03:23:21.084Z,7.18
2023-05-15T03:25:48.750Z,5.82
2023-05-15T03:28:16.145Z,6.07
2023-05-15T03:30:46.913Z,7.13
2023-05-15T03:33:14.260Z,6.30
2023-05-15T03:35:42.102Z,6.15
2023-05-15T03:38:09.568Z,6.80
2023-05-15T03:40:39.672Z,6.07
2023-05-15T03:43:07.232Z,7.35
2023-05-15T03:45:37.725Z,7.63
2023-05-15T03:48:05.808Z,6.82
2023-05-15T03:50:33.762Z,6.38
2023-05-15T03:53:01.156Z,6.22
2023-05-15T03:55:28.854Z,6.60
2023-05-15T03:57:58.069Z,5.90
2023-05-15T04:00:26.268Z,5.47
2023-05-15T04:02:54.268Z,9.38
2023-05-15T04:05:22.722Z,25.15
2023-05-15T04:07:50.513Z,9.48
2023-05-15T04:10:18.131Z,5.28
2023-05-15T04:12:46.401Z,7.57
2023-05-15T04:15:23.393Z,5.35
2023-05-15T04:17:53.887Z,6.10
2023-05-15T04:20:24.493Z,6.93
2023-05-15T04:22:53.016Z,7.40
2023-05-15T04:25:21.320Z,12.95
2023-05-15T04:27:49.439Z,6.90
2023-05-15T04:30:17.581Z,11.07
2023-05-15T04:32:44.976Z,8.00
2023-05-15T04:35:13.775Z,8.98
2023-05-15T04:37:43.273Z,6.63
2023-05-15T04:40:12.323Z,5.40
2023-05-15T04:42:39.860Z,11.18
2023-05-15T04:45:09.377Z,6.95
2023-05-15T04:47:37.298Z,6.15
2023-05-15T04:50:05.615Z,5.30
2023-05-15T04:52:33.419Z,6.40
2023-05-15T04:55:01.137Z,7.57
2023-05-15T04:57:28.782Z,13.15
2023-05-15T04:59:56.520Z,7.03
2023-05-15T05:02:24.613Z,7.68
2023-05-15T05:04:52.792Z,6.60
2023-05-15T05:07:20.132Z,4.80
2023-05-15T05:09:47.708Z,4.07
2023-05-15T05:12:15.071Z,3.92
2023-05-15T05:14:44.710Z,5.90
2023-05-15T05:17:12.245Z,3.60
2023-05-15T05:19:39.860Z,3.83
2023-05-15T05:22:07.848Z,3.45
2023-05-15T05:24:37.585Z,4.88
2023-05-15T05:27:05.836Z,3.85
2023-05-15T05:29:34.044Z,5.28
2023-05-15T05:32:01.474Z,4.07
2023-05-15T05:34:29.436Z,3.35
2023-05-15T05:36:56.862Z,4.35
2023-05-15T05:39:26.668Z,4.00
2023-05-15T05:41:53.960Z,6.63
2023-05-15T05:44:21.640Z,5.07
2023-05-15T05:46:49.752Z,36.42
2023-05-15T05:49:17.448Z,12.15
2023-05-15T05:51:47.159Z,16.48
2023-05-15T05:54:15.208Z,8.55
2023-05-15T05:56:43.124Z,4.95
2023-05-15T05:59:10.990Z,4.18
2023-05-15T06:01:38.505Z,4.93
2023-05-15T06:04:06.433Z,4.22
2023-05-15T06:06:34.686Z,4.00
2023-05-15T06:09:02.511Z,4.20
2023-05-15T06:11:29.816Z,4.47
2023-05-15T06:13:57.392Z,4.80
2023-05-15T06:16:24.766Z,4.65
2023-05-15T06:18:52.368Z,4.55
2023-05-15T06:21:19.754Z,6.03
2023-05-15T06:23:53.340Z,5.97
2023-05-15T06:26:22.054Z,6.63
2023-05-15T06:28:50.577Z,5.43
2023-05-15T06:31:18.036Z,5.05
2023-05-15T06:33:45.642Z,4.80
2023-05-15T06:36:12.975Z,3.58
2023-05-15T06:38:40.546Z,4.60
2023-05-15T06:41:07.920Z,4.53
2023-05-15T06:43:38.546Z,6.13
2023-05-15T06:46:06.176Z,4.97
2023-05-15T06:48:34.227Z,5.53
2023-05-15T06:51:01.777Z,4.10
2023-05-15T06:53:30.335Z,5.32
2023-05-15T06:55:57.876Z,4.25
2023-05-15T06:58:27.878Z,5.78
2023-05-15T07:00:57.673Z,6.60
2023-05-15T07:03:26.725Z,3.85
2023-05-15T07:05:54.307Z,4.88
2023-05-15T07:08:21.964Z,4.38
2023-05-15T07:10:49.590Z,6.18
2023-05-15T07:13:18.437Z,4.80
2023-05-15T07:15:46.081Z,4.85
2023-05-15T07:18:13.759Z,5.97
2023-05-15T07:20:41.170Z,6.30
2023-05-15T07:23:08.802Z,14.32
2023-05-15T07:25:36.528Z,16.02
2023-05-15T07:28:04.469Z,7.15
2023-05-15T07:30:31.817Z,6.40
2023-05-15T07:32:59.613Z,10.25
2023-05-15T07:35:27.318Z,8.45
2023-05-15T07:37:55.226Z,8.00
2023-05-15T07:40:24.324Z,7.55
2023-05-15T07:42:51.984Z,6.80
2023-05-15T07:45:19.466Z,6.55
2023-05-15T07:47:49.164Z,5.97
2023-05-15T07:50:19.794Z,5.32
2023-05-15T07:52:47.489Z,16.27
2023-05-15T07:55:14.886Z,5.60
2023-05-15T07:57:42.630Z,7.47
2023-05-15T08:00:13.723Z,14.63
2023-05-15T08:02:41.743Z,22.27
2023-05-15T08:05:09.774Z,7.40
2023-05-15T08:07:37.536Z,5.40
2023-05-15T08:10:07.477Z,5.85
2023-05-15T08:12:35.256Z,4.35
2023-05-15T08:15:02.748Z,4.75
2023-05-15T08:17:30.789Z,4.50
2023-05-15T08:19:58.174Z,5.45
2023-05-15T08:22:25.957Z,5.80
2023-05-15T08:24:53.340Z,5.72
2023-05-15T08:27:21.035Z,6.50
2023-05-15T08:29:48.448Z,14.00
2023-05-15T08:32:18.277Z,7.85
2023-05-15T08:34:45.832Z,10.25
2023-05-15T08:37:13.422Z,13.02
2023-05-15T08:39:40.714Z,22.40
2023-05-15T08:42:11.386Z,16.52
2023-05-15T08:44:39.567Z,11.90
2023-05-15T08:47:07.969Z,8.18
2023-05-15T08:50:06.943Z,9.38
2023-05-15T08:52:35.059Z,9.65
2023-05-15T08:55:03.962Z,16.50
2023-05-15T08:57:33.995Z,9.15
2023-05-15T09:00:06.520Z,15.27
2023-05-15T09:02:37.604Z,8.15
2023-05-15T09:05:07.421Z,6.55
2023-05-15T09:07:36.454Z,7.07
2023-05-15T09:10:04.796Z,6.00
2023-05-15T09:12:34.931Z,6.47
2023-05-15T09:15:22.577Z,7.60
2023-05-15T09:17:54.550Z,7.57
2023-05-15T09:20:34.000Z,7.55
2023-05-15T09:23:04.725Z,8.85
2023-05-15T09:25:44.948Z,4.57
2023-05-15T09:28:31.912Z,4.93
2023-05-15T09:31:03.001Z,2.65
2023-05-15T09:33:39.944Z,4.25
2023-05-15T09:36:09.495Z,5.85
2023-05-15T09:38:48.465Z,3.95
2023-05-15T09:41:25.049Z,7.80
2023-05-15T09:43:56.277Z,16.40
2023-05-15T09:46:24.260Z,3.40
2023-05-15T09:48:55.889Z,3.97
2023-05-15T09:51:23.461Z,7.65
2023-05-15T09:53:53.746Z,2.83
2023-05-15T09:56:22.130Z,3.60
2023-05-15T09:58:59.128Z,8.18
2023-05-15T10:01:27.648Z,4.05
2023-05-15T10:04:05.697Z,6.03
2023-05-15T10:06:43.338Z,4.57
2023-05-15T10:09:12.963Z,5.45
2023-05-15T10:11:43.740Z,4.35
2023-05-15T10:14:14.281Z,7.50
2023-05-15T10:16:42.130Z,8.43
2023-05-15T10:19:14.100Z,7.43
2023-05-15T10:21:42.411Z,5.65
2023-05-15T10:24:11.759Z,3.75
2023-05-15T10:26:41.771Z,5.20
2023-05-15T10:29:13.146Z,6.22
2023-05-15T10:31:42.139Z,4.55
2023-05-15T10:34:12.122Z,6.43
2023-05-15T10:36:43.106Z,5.20
2023-05-15T10:39:11.904Z,6.68
2023-05-15T10:41:40.742Z,5.88
2023-05-15T10:44:08.999Z,8.68
2023-05-15T10:46:37.724Z,7.50
2023-05-15T10:49:05.663Z,6.72
2023-05-15T10:51:33.636Z,8.25
2023-05-15T10:54:05.287Z,7.00
2023-05-15T10:56:39.206Z,7.40
2023-05-15T10:59:10.656Z,8.70
2023-05-15T11:01:40.148Z,8.45
2023-05-15T11:04:16.191Z,12.07
2023-05-15T11:06:49.057Z,13.50
2023-05-15T11:09:23.299Z,9.82
2023-05-15T11:12:09.543Z,14.77
2023-05-15T11:14:43.515Z,9.73
2023-05-15T11:17:17.680Z,8.23
2023-05-15T11:19:51.374Z,7.18
2023-05-15T11:22:23.085Z,7.70
2023-05-15T11:25:09.343Z,5.72
2023-05-15T11:27:46.620Z,4.93
2023-05-15T11:30:22.968Z,5.03
2023-05-15T11:32:52.022Z,6.07
2023-05-15T11:35:43.596Z,7.95
2023-05-15T11:38:11.037Z,5.50
2023-05-15T11:40:47.681Z,7.30
2023-05-15T11:43:28.356Z,5.10
2023-05-15T11:46:04.433Z,9.75
2023-05-15T11:48:41.781Z,5.47
2023-05-15T11:51:25.377Z,5.55
2023-05-15T11:53:56.087Z,5.90
2023-05-15T11:56:30.936Z,5.45
2023-05-15T11:59:01.313Z,5.93
2023-05-15T12:01:44.036Z,5.90
2023-05-15T12:04:19.330Z,4.90
2023-05-15T12:06:49.602Z,6.15
2023-05-15T12:09:19.581Z,5.53
2023-05-15T12:11:53.780Z,6.22
2023-05-15T12:14:31.487Z,6.30
2023-05-15T12:17:04.460Z,4.97
2023-05-15T12:19:34.715Z,4.70
2023-05-15T12:22:06.467Z,5.22
2023-05-15T12:24:39.784Z,6.47
2023-05-15T12:27:09.817Z,4.50
2023-05-15T12:29:41.809Z,11.57
2023-05-15T12:32:10.349Z,4.72
2023-05-15T12:34:38.132Z,3.83
2023-05-15T12:37:05.988Z,4.18
2023-05-15T12:39:33.436Z,4.15
2023-05-15T12:42:01.232Z,4.10
2023-05-15T12:44:29.445Z,4.45
2023-05-15T12:46:57.405Z,6.57
2023-05-15T12:49:24.918Z,3.65
2023-05-15T12:51:52.440Z,4.30
2023-05-15T12:54:20.950Z,4.10
2023-05-15T12:56:49.346Z,4.03
2023-05-15T12:59:16.871Z,3.45
2023-05-15T13:01:45.555Z,3.50
2023-05-15T13:04:12.908Z,3.92
2023-05-15T13:06:46.849Z,3.85
2023-05-15T13:09:22.053Z,3.72
2023-05-15T13:11:50.041Z,3.38
2023-05-15T13:14:22.735Z,3.00
2023-05-15T13:16:50.349Z,4.07
2023-05-15T13:19:17.895Z,5.15
2023-05-15T13:21:46.066Z,3.75
2023-05-15T13:24:13.433Z,3.00
2023-05-15T13:26:41.301Z,3.17
2023-05-15T13:29:08.744Z,3.03
2023-05-15T13:31:36.395Z,2.80
2023-05-15T13:34:03.789Z,2.78
2023-05-15T13:36:31.507Z,3.63
2023-05-15T13:38:58.942Z,2.10
2023-05-15T13:41:26.663Z,4.47
2023-05-15T13:43:54.025Z,2.45
2023-05-15T13:46:21.644Z,8.20
2023-05-15T13:48:49.082Z,2.25
2023-05-15T13:51:16.931Z,3.42
2023-05-15T13:53:44.297Z,2.25
2023-05-15T13:56:12.796Z,3.58
2023-05-15T13:58:41.288Z,2.97
2023-05-15T14:01:08.912Z,2.60
2023-05-15T14:03:36.529Z,2.10
2023-05-15T14:06:04.686Z,1.65
2023-05-15T14:08:31.962Z,1.67
2023-05-15T14:10:59.554Z,2.53
2023-05-15T14:13:26.871Z,1.77
2023-05-15T14:15:55.082Z,2.40
2023-05-15T14:18:22.393Z,1.98
2023-05-15T14:20:50.068Z,1.40
2023-05-15T14:23:17.382Z,1.25
2023-05-15T14:25:45.034Z,1.40
2023-05-15T14:28:13.101Z,3.40
2023-05-15T14:30:40.848Z,1.60
2023-05-15T14:33:08.245Z,1.20
2023-05-15T14:35:36.721Z,1.52
2023-05-15T14:38:04.714Z,1.80
2023-05-15T14:40:32.361Z,2.05
2023-05-15T14:42:59.716Z,2.00
2023-05-15T14:45:27.634Z,1.40
2023-05-15T14:47:55.090Z,1.83
2023-05-15T14:50:22.878Z,2.20
2023-05-15T14:52:50.325Z,2.45
2023-05-15T14:55:23.360Z,3.30
2023-05-15T14:57:50.887Z,4.13
2023-05-15T15:00:18.737Z,4.15
2023-05-15T15:02:46.525Z,2.28
2023-05-15T15:05:14.426Z,1.70
2023-05-15T15:08:11.054Z,3.30
2023-05-15T15:10:40.350Z,2.97
2023-05-15T15:13:10.164Z,3.85
2023-05-15T15:15:37.845Z,2.58
2023-05-15T15:18:06.043Z,1.92
2023-05-15T15:20:33.944Z,1.42
2023-05-15T15:23:05.116Z,1.10
2023-05-15T15:25:33.764Z,1.90
2023-05-15T15:28:02.567Z,1.23
2023-05-15T15:30:31.131Z,14.65
2023-05-15T15:32:59.250Z,2.22
2023-05-15T15:35:26.909Z,2.60
2023-05-15T15:37:55.376Z,1.98
2023-05-15T15:40:23.958Z,1.15
2023-05-15T15:42:51.961Z,2.28
2023-05-15T15:45:19.348Z,1.73
2023-05-15T15:47:47.078Z,4.28
2023-05-15T15:50:14.490Z,1.27
2023-05-15T15:52:42.253Z,2.05
2023-05-15T15:55:10.274Z,0.77
2023-05-15T15:57:38.101Z,1.92
2023-05-15T16:00:08.331Z,1.52
2023-05-15T16:02:36.767Z,1.67
2023-05-15T16:05:04.351Z,4.25
2023-05-15T16:07:32.051Z,2.25
2023-05-15T16:10:11.953Z,1.52
2023-05-15T16:12:42.606Z,2.08
2023-05-15T16:15:21.653Z,1.45
2023-05-15T16:17:54.305Z,1.70
2023-05-15T16:20:23.438Z,2.45
2023-05-15T16:22:56.136Z,1.08
2023-05-15T16:25:23.609Z,3.17
2023-05-15T16:27:51.279Z,1.00
2023-05-15T16:30:18.636Z,1.92
2023-05-15T16:32:46.664Z,3.40
2023-05-15T16:35:14.134Z,1.80
2023-05-15T16:37:41.822Z,2.97
2023-05-15T16:40:09.945Z,0.73
2023-05-15T16:42:38.229Z,1.40
2023-05-15T16:45:07.061Z,2.00
2023-05-15T16:47:37.233Z,1.95
2023-05-15T16:50:08.363Z,2.67
2023-05-15T16:52:36.920Z,1.85
2023-05-15T16:55:04.780Z,2.50
2023-05-15T16:57:32.476Z,2.72
2023-05-15T16:59:59.813Z,1.27
2023-05-15T17:02:27.517Z,2.17
2023-05-15T17:04:55.255Z,2.05
2023-05-15T17:07:22.816Z,3.63
2023-05-15T17:09:50.108Z,2.13
2023-05-15T17:12:17.770Z,1.83
2023-05-15T17:14:44.995Z,2.35
2023-05-15T17:17:12.605Z,2.97
2023-05-15T17:19:39.819Z,3.05
2023-05-15T17:22:07.376Z,3.55
2023-05-15T17:24:49.365Z,5.32
2023-05-15T17:27:19.839Z,3.95
2023-05-15T17:29:48.326Z,4.78
2023-05-15T17:32:16.945Z,1.80
2023-05-15T17:34:45.163Z,1.55
2023-05-15T17:37:14.115Z,1.90
2023-05-15T17:39:41.661Z,1.33
2023-05-15T17:42:09.514Z,1.20
2023-05-15T17:44:36.800Z,4.00
2023-05-15T17:47:04.754Z,2.95
2023-05-15T17:49:34.273Z,2.85
2023-05-15T17:52:02.058Z,2.20
2023-05-15T17:54:29.486Z,3.15
2023-05-15T17:56:57.132Z,3.90
2023-05-15T17:59:24.677Z,2.75
2023-05-15T18:01:53.051Z,4.60
2023-05-15T18:04:20.689Z,3.28
2023-05-15T18:06:48.690Z,3.80
2023-05-15T18:09:16.091Z,5.28
2023-05-15T18:11:43.682Z,2.78
2023-05-15T18:14:11.119Z,4.80
2023-05-15T18:16:39.100Z,4.40
2023-05-15T18:19:07.255Z,5.90
2023-05-15T18:21:37.673Z,3.78
2023-05-15T18:24:05.747Z,2.95
2023-05-15T18:26:33.369Z,3.67
2023-05-15T18:29:00.604Z,3.45
2023-05-15T18:31:28.291Z,4.22
2023-05-15T18:33:55.730Z,3.03
2023-05-15T18:36:23.884Z,5.35
2023-05-15T18:38:51.431Z,4.57
2023-05-15T18:41:19.111Z,1.80
2023-05-15T18:43:46.566Z,1.85
2023-05-15T18:46:14.232Z,1.38
2023-05-15T18:48:41.636Z,2.15
2023-05-15T18:51:10.977Z,1.70
2023-05-15T18:53:38.408Z,2.67
2023-05-15T18:56:06.241Z,2.85
2023-05-15T18:58:33.593Z,2.28
2023-05-15T19:01:01.295Z,2.97
2023-05-15T19:03:28.779Z,1.77
2023-05-15T19:05:57.491Z,2.30
2023-05-15T19:08:25.020Z,1.90
2023-05-15T19:10:53.048Z,1.40
2023-05-15T19:13:20.445Z,1.55
2023-05-15T19:15:52.720Z,1.42
2023-05-15T19:18:20.474Z,2.13
2023-05-15T19:20:52.306Z,1.50
2023-05-15T19:23:20.982Z,2.38
2023-05-15T19:25:48.800Z,2.60
2023-05-15T19:28:16.466Z,2.83
2023-05-15T19:30:44.641Z,2.90
2023-05-15T19:33:13.079Z,2.40
2023-05-15T19:35:40.952Z,3.10
2023-05-15T19:38:08.424Z,3.50
2023-05-15T19:40:36.721Z,4.68
2023-05-15T19:43:04.522Z,5.25
2023-05-15T19:45:33.779Z,4.82
2023-05-15T19:48:01.432Z,4.13
2023-05-15T19:50:29.585Z,5.78
2023-05-15T19:52:57.860Z,7.72
2023-05-15T19:55:25.817Z,7.35
2023-05-15T19:57:56.447Z,6.43
2023-05-15T20:00:24.907Z,6.15
2023-05-15T20:02:53.356Z,7.47
2023-05-15T20:05:21.324Z,5.97
2023-05-15T20:07:48.854Z,8.38
2023-05-15T20:10:18.607Z,6.55
2023-05-15T20:12:46.869Z,7.85
2023-05-15T20:15:15.883Z,6.13
2023-05-15T20:17:43.672Z,6.13
2023-05-15T20:20:12.289Z,7.63
2023-05-15T20:22:42.487Z,5.78
2023-05-15T20:25:11.017Z,5.88
2023-05-15T20:27:38.737Z,6.50
2023-05-15T20:30:07.794Z,6.45
2023-05-15T20:32:36.424Z,5.07
2023-05-15T20:35:04.658Z,6.68
2023-05-15T20:37:32.119Z,7.80
2023-05-15T20:40:00.390Z,8.25
2023-05-15T20:42:28.964Z,6.93
2023-05-15T20:44:56.646Z,5.80
2023-05-15T20:47:24.225Z,5.20
2023-05-15T20:49:52.020Z,6.50
2023-05-15T20:52:20.949Z,7.38
2023-05-15T20:54:48.964Z,4.60
2023-05-15T20:57:16.442Z,4.38
2023-05-15T20:59:44.278Z,7.20
2023-05-15T21:02:11.695Z,5.47
2023-05-15T21:04:39.885Z,3.88
2023-05-15T21:07:07.247Z,5.10
2023-05-15T21:09:35.884Z,6.22
2023-05-15T21:12:04.018Z,8.88
2023-05-15T21:14:32.021Z,8.20
2023-05-15T21:16:59.384Z,7.50
2023-05-15T21:19:27.345Z,6.75
2023-05-15T21:21:54.961Z,10.30
2023-05-15T21:24:23.099Z,9.00
2023-05-15T21:26:50.657Z,7.65
2023-05-15T21:29:18.327Z,7.43
2023-05-15T21:31:45.777Z,8.57
2023-05-15T21:34:13.594Z,9.60
2023-05-15T21:36:41.186Z,6.80
2023-05-15T21:39:09.583Z,10.68
2023-05-15T21:41:37.022Z,9.63
2023-05-15T21:44:04.751Z,8.90
2023-05-15T21:46:32.083Z,7.85
2023-05-15T21:49:01.875Z,7.40
2023-05-15T21:51:29.344Z,8.25
2023-05-15T21:53:57.229Z,6.00
2023-05-15T21:56:24.584Z,7.38
2023-05-15T21:58:53.678Z,7.63
2023-05-15T22:01:21.108Z,7.93
2023-05-15T22:03:49.164Z,8.25
2023-05-15T22:06:16.749Z,6.68
2023-05-15T22:08:44.952Z,5.55
2023-05-15T22:11:12.551Z,5.90
2023-05-15T22:13:40.157Z,7.80
2023-05-15T22:16:07.717Z,5.65
2023-05-15T22:18:35.792Z,5.85
2023-05-15T22:21:03.244Z,5.88
2023-05-15T22:23:31.603Z,6.32
2023-05-15T22:26:00.034Z,5.85
2023-05-15T22:28:27.896Z,7.22
2023-05-15T22:30:55.549Z,6.57
2023-05-15T22:33:24.584Z,5.90
2023-05-15T22:35:52.909Z,9.57
2023-05-15T22:38:21.353Z,16.40
2023-05-15T22:40:52.837Z,15.50
2023-05-15T22:43:22.140Z,8.27
2023-05-15T22:45:49.646Z,9.73
2023-05-15T22:48:17.670Z,13.88
2023-05-15T22:50:45.189Z,8.60
2023-05-15T22:53:12.844Z,8.23
2023-05-15T22:55:40.409Z,8.30
2023-05-15T22:58:08.109Z,9.23
2023-05-15T23:00:35.668Z,9.02
2023-05-15T23:03:03.562Z,9.07
2023-05-15T23:05:31.358Z,7.68
2023-05-15T23:07:59.022Z,10.07
2023-05-15T23:10:26.890Z,10.45
2023-05-15T23:12:55.054Z,8.98
2023-05-15T23:15:22.382Z,9.27
2023-05-15T23:17:50.319Z,9.15
2023-05-15T23:20:18.212Z,9.98
2023-05-15T23:22:45.950Z,11.02
2023-05-15T23:25:13.382Z,12.27
2023-05-15T23:27:41.248Z,11.20
2023-05-15T23:30:09.967Z,13.95
2023-05-15T23:32:37.935Z,11.63
2023-05-15T23:35:05.921Z,16.40
2023-05-15T23:37:33.563Z,11.70
2023-05-15T23:40:00.973Z,14.13
2023-05-15T23:42:30.137Z,14.07
2023-05-15T23:44:57.505Z,14.23
2023-05-15T23:47:25.250Z,13.13
2023-05-15T23:49:52.661Z,12.82
2023-05-15T23:52:20.338Z,11.00
2023-05-15T23:54:47.645Z,13.95
2023-05-15T23:57:15.663Z,11.82
2023-05-15T23:59:43.000Z,9.50
